Main page
METAR-TAF:

METAR-TAF

Airports :

Dubai, United Arab Emirates

Dubai International Airport

latitude: 25-15-10N, longitude: 055-21-52E, elevation: 8 m

Current weather observation

The report was made 35 minutes ago, at 20:00 UTC
Wind 3 kt from the South, varying between East/Southeast and South/Southwest
Temperature 36°C
Humidity 42%
Pressure 1000 hPa
Visibility 10 km or more
no clouds below 1500 m and no cumulonimbus

METAR: OMDB 232000Z 17003KT 110V210 CAVOK 36/21 Q1000 NOSIG

Time: 00:35 (20:35 UTC)

Forecast

The report was made 3 hours and 43 minutes ago, at 16:52 UTC
Forecast valid from 23 at 18 UTC to 25 at 00 UTC
Wind 5 kt from the South
Visibility: 8000 m
Becoming
from 24 at 07 UTC to 24 at 09 UTC
Wind 12 kt from the West/Northwest
Becoming
from 24 at 16 UTC to 24 at 18 UTC
Wind 5 kt from the South

TAF: OMDB 231652Z 2318/2500 19005KT 8000 NSC BECMG 2407/2409 29012KT BECMG 2416/2418 17005KT

Weather observations and forecasts of more than 4000 airports (METAR and TAF reports).

The available stations are represented by yellow and red dots on the map.

Hover mouse over dot to see the name of the station.

Then click to see weather observations and forecasts.

To change the map : click on the green buttons with a black cross to zoom in, on the green button with a dash to zoom out, or on the green arrows for adjacent maps.


METAR-TAF: